sensor_id;sensor_type;location;lat;lon;timestamp;temperature;humidity
56727;DHT22;42609;52.700;6.236;2023-04-09T00:01:03;10.10;99.90
56727;DHT22;42609;52.700;6.236;2023-04-09T00:03:29;10.10;99.90
56727;DHT22;42609;52.700;6.236;2023-04-09T00:05:54;10.10;99.90
56727;DHT22;42609;52.700;6.236;2023-04-09T00:08:20;10.10;99.90
56727;DHT22;42609;52.700;6.236;2023-04-09T00:10:48;10.10;99.90
56727;DHT22;42609;52.700;6.236;2023-04-09T00:13:14;10.10;99.90
56727;DHT22;42609;52.700;6.236;2023-04-09T00:15:40;10.10;99.90
56727;DHT22;42609;52.700;6.236;2023-04-09T00:18:06;10.00;99.90
56727;DHT22;42609;52.700;6.236;2023-04-09T00:20:32;10.00;99.90
56727;DHT22;42609;52.700;6.236;2023-04-09T00:22:58;10.00;99.90
56727;DHT22;42609;52.700;6.236;2023-04-09T00:25:23;10.00;99.90
56727;DHT22;42609;52.700;6.236;2023-04-09T00:27:49;10.00;99.90
56727;DHT22;42609;52.700;6.236;2023-04-09T00:30:15;10.00;99.90
56727;DHT22;42609;52.700;6.236;2023-04-09T00:32:41;10.00;99.90
56727;DHT22;42609;52.700;6.236;2023-04-09T00:35:07;10.00;99.90
56727;DHT22;42609;52.700;6.236;2023-04-09T00:37:32;10.00;99.90
56727;DHT22;42609;52.700;6.236;2023-04-09T00:39:58;10.00;99.90
56727;DHT22;42609;52.700;6.236;2023-04-09T00:42:23;9.90;99.90
56727;DHT22;42609;52.700;6.236;2023-04-09T00:44:50;9.90;99.90
56727;DHT22;42609;52.700;6.236;2023-04-09T00:47:16;9.90;99.90
56727;DHT22;42609;52.700;6.236;2023-04-09T00:49:41;9.90;99.90
56727;DHT22;42609;52.700;6.236;2023-04-09T00:52:09;9.90;99.90
56727;DHT22;42609;52.700;6.236;2023-04-09T00:54:35;9.90;99.90
56727;DHT22;42609;52.700;6.236;2023-04-09T00:57:00;9.90;99.90
56727;DHT22;42609;52.700;6.236;2023-04-09T00:59:26;9.90;99.90
56727;DHT22;42609;52.700;6.236;2023-04-09T01:01:52;9.80;99.90
56727;DHT22;42609;52.700;6.236;2023-04-09T01:04:19;9.90;99.90
56727;DHT22;42609;52.700;6.236;2023-04-09T01:06:51;9.80;99.90
56727;DHT22;42609;52.700;6.236;2023-04-09T01:09:26;9.90;99.90
56727;DHT22;42609;52.700;6.236;2023-04-09T01:14:52;9.80;99.90
56727;DHT22;42609;52.700;6.236;2023-04-09T01:17:30;9.90;99.90
56727;DHT22;42609;52.700;6.236;2023-04-09T01:20:08;9.90;99.90
56727;DHT22;42609;52.700;6.236;2023-04-09T01:31:03;9.80;99.90
56727;DHT22;42609;52.700;6.236;2023-04-09T01:33:32;9.80;99.90
56727;DHT22;42609;52.700;6.236;2023-04-09T01:35:59;9.80;99.90
56727;DHT22;42609;52.700;6.236;2023-04-09T01:38:26;9.70;99.90
56727;DHT22;42609;52.700;6.236;2023-04-09T01:40:54;9.80;99.90
56727;DHT22;42609;52.700;6.236;2023-04-09T01:43:20;9.80;99.90
56727;DHT22;42609;52.700;6.236;2023-04-09T01:45:47;9.70;99.90
56727;DHT22;42609;52.700;6.236;2023-04-09T01:48:14;9.70;99.90
56727;DHT22;42609;52.700;6.236;2023-04-09T01:50:40;9.70;99.90
56727;DHT22;42609;52.700;6.236;2023-04-09T01:53:06;9.70;99.90
56727;DHT22;42609;52.700;6.236;2023-04-09T01:55:32;9.70;99.90
56727;DHT22;42609;52.700;6.236;2023-04-09T01:57:57;9.70;99.90
56727;DHT22;42609;52.700;6.236;2023-04-09T02:00:27;9.70;99.90
56727;DHT22;42609;52.700;6.236;2023-04-09T02:03:05;9.70;99.90
56727;DHT22;42609;52.700;6.236;2023-04-09T02:05:37;9.70;99.90
56727;DHT22;42609;52.700;6.236;2023-04-09T02:08:04;9.70;99.90
56727;DHT22;42609;52.700;6.236;2023-04-09T02:10:30;9.70;99.90
56727;DHT22;42609;52.700;6.236;2023-04-09T02:13:00;9.60;99.90
56727;DHT22;42609;52.700;6.236;2023-04-09T02:15:30;9.60;99.90
56727;DHT22;42609;52.700;6.236;2023-04-09T02:17:56;9.60;99.90
56727;DHT22;42609;52.700;6.236;2023-04-09T02:20:21;9.60;99.90
56727;DHT22;42609;52.700;6.236;2023-04-09T02:22:47;9.60;99.90
56727;DHT22;42609;52.700;6.236;2023-04-09T02:25:13;9.60;99.90
56727;DHT22;42609;52.700;6.236;2023-04-09T02:27:39;9.60;99.90
56727;DHT22;42609;52.700;6.236;2023-04-09T02:30:05;9.60;99.90
56727;DHT22;42609;52.700;6.236;2023-04-09T02:32:30;9.60;99.90
56727;DHT22;42609;52.700;6.236;2023-04-09T02:34:56;9.60;99.90
56727;DHT22;42609;52.700;6.236;2023-04-09T02:37:21;9.60;99.90
56727;DHT22;42609;52.700;6.236;2023-04-09T02:39:47;9.60;99.90
56727;DHT22;42609;52.700;6.236;2023-04-09T02:42:13;9.60;99.90
56727;DHT22;42609;52.700;6.236;2023-04-09T02:44:38;9.50;99.90
56727;DHT22;42609;52.700;6.236;2023-04-09T02:47:04;9.50;99.90
56727;DHT22;42609;52.700;6.236;2023-04-09T02:49:29;9.50;99.90
56727;DHT22;42609;52.700;6.236;2023-04-09T02:51:55;9.50;99.90
56727;DHT22;42609;52.700;6.236;2023-04-09T02:54:21;9.50;99.90
56727;DHT22;42609;52.700;6.236;2023-04-09T02:56:46;9.40;99.90
56727;DHT22;42609;52.700;6.236;2023-04-09T02:59:12;9.40;99.90
56727;DHT22;42609;52.700;6.236;2023-04-09T03:01:37;9.40;99.90
56727;DHT22;42609;52.700;6.236;2023-04-09T03:04:03;9.40;99.90
56727;DHT22;42609;52.700;6.236;2023-04-09T03:06:28;9.50;99.90
56727;DHT22;42609;52.700;6.236;2023-04-09T03:08:54;9.40;99.90
56727;DHT22;42609;52.700;6.236;2023-04-09T03:11:19;9.50;99.90
56727;DHT22;42609;52.700;6.236;2023-04-09T03:13:45;9.40;99.90
56727;DHT22;42609;52.700;6.236;2023-04-09T03:16:10;9.50;99.90
56727;DHT22;42609;52.700;6.236;2023-04-09T03:18:36;9.40;99.90
56727;DHT22;42609;52.700;6.236;2023-04-09T03:21:05;9.40;99.90
56727;DHT22;42609;52.700;6.236;2023-04-09T03:23:32;9.40;99.90
56727;DHT22;42609;52.700;6.236;2023-04-09T03:26:03;9.40;99.90
56727;DHT22;42609;52.700;6.236;2023-04-09T03:28:29;9.40;99.90
56727;DHT22;42609;52.700;6.236;2023-04-09T03:30:55;9.40;99.90
56727;DHT22;42609;52.700;6.236;2023-04-09T03:33:21;9.30;99.90
56727;DHT22;42609;52.700;6.236;2023-04-09T03:35:46;9.30;99.90
56727;DHT22;42609;52.700;6.236;2023-04-09T03:38:12;9.30;99.90
56727;DHT22;42609;52.700;6.236;2023-04-09T03:40:38;9.30;99.90
56727;DHT22;42609;52.700;6.236;2023-04-09T03:43:03;9.20;99.90
56727;DHT22;42609;52.700;6.236;2023-04-09T03:45:29;9.20;99.90
56727;DHT22;42609;52.700;6.236;2023-04-09T03:47:54;9.30;99.90
56727;DHT22;42609;52.700;6.236;2023-04-09T03:50:20;9.20;99.90
56727;DHT22;42609;52.700;6.236;2023-04-09T03:52:46;9.30;99.90
56727;DHT22;42609;52.700;6.236;2023-04-09T03:55:11;9.30;99.90
56727;DHT22;42609;52.700;6.236;2023-04-09T03:57:37;9.30;99.90
56727;DHT22;42609;52.700;6.236;2023-04-09T04:00:03;9.30;99.90
56727;DHT22;42609;52.700;6.236;2023-04-09T04:02:29;9.30;99.90
56727;DHT22;42609;52.700;6.236;2023-04-09T04:05:00;9.30;99.90
56727;DHT22;42609;52.700;6.236;2023-04-09T04:07:26;9.30;99.90
56727;DHT22;42609;52.700;6.236;2023-04-09T04:09:52;9.30;99.90
56727;DHT22;42609;52.700;6.236;2023-04-09T04:12:17;9.30;99.90
56727;DHT22;42609;52.700;6.236;2023-04-09T04:14:43;9.30;99.90
56727;DHT22;42609;52.700;6.236;2023-04-09T04:17:09;9.30;99.90
56727;DHT22;42609;52.700;6.236;2023-04-09T04:19:35;9.30;99.90
56727;DHT22;42609;52.700;6.236;2023-04-09T04:22:01;9.30;99.90
56727;DHT22;42609;52.700;6.236;2023-04-09T04:24:27;9.30;99.90
56727;DHT22;42609;52.700;6.236;2023-04-09T04:26:52;9.30;99.90
56727;DHT22;42609;52.700;6.236;2023-04-09T04:29:18;9.30;99.90
56727;DHT22;42609;52.700;6.236;2023-04-09T04:31:43;9.30;99.90
56727;DHT22;42609;52.700;6.236;2023-04-09T04:34:09;9.30;99.90
56727;DHT22;42609;52.700;6.236;2023-04-09T04:36:35;9.30;99.90
56727;DHT22;42609;52.700;6.236;2023-04-09T04:39:01;9.30;99.90
56727;DHT22;42609;52.700;6.236;2023-04-09T04:41:27;9.30;99.90
56727;DHT22;42609;52.700;6.236;2023-04-09T04:43:53;9.30;99.90
56727;DHT22;42609;52.700;6.236;2023-04-09T04:46:19;9.30;99.90
56727;DHT22;42609;52.700;6.236;2023-04-09T04:48:45;9.30;99.90
56727;DHT22;42609;52.700;6.236;2023-04-09T04:51:10;9.30;99.90
56727;DHT22;42609;52.700;6.236;2023-04-09T04:53:36;9.30;99.90
56727;DHT22;42609;52.700;6.236;2023-04-09T04:56:01;9.20;99.90
56727;DHT22;42609;52.700;6.236;2023-04-09T04:58:27;9.20;99.90
56727;DHT22;42609;52.700;6.236;2023-04-09T05:00:53;9.20;99.90
56727;DHT22;42609;52.700;6.236;2023-04-09T05:03:19;9.20;99.90
56727;DHT22;42609;52.700;6.236;2023-04-09T05:05:44;9.20;99.90
56727;DHT22;42609;52.700;6.236;2023-04-09T05:08:10;9.20;99.90
56727;DHT22;42609;52.700;6.236;2023-04-09T05:10:36;9.20;99.90
56727;DHT22;42609;52.700;6.236;2023-04-09T05:13:04;9.20;99.90
56727;DHT22;42609;52.700;6.236;2023-04-09T05:15:30;9.20;99.90
56727;DHT22;42609;52.700;6.236;2023-04-09T05:17:55;9.20;99.90
56727;DHT22;42609;52.700;6.236;2023-04-09T05:20:22;9.20;99.90
56727;DHT22;42609;52.700;6.236;2023-04-09T05:22:47;9.20;99.90
56727;DHT22;42609;52.700;6.236;2023-04-09T05:25:13;9.20;99.90
56727;DHT22;42609;52.700;6.236;2023-04-09T05:27:40;9.20;99.90
56727;DHT22;42609;52.700;6.236;2023-04-09T05:30:06;9.20;99.90
56727;DHT22;42609;52.700;6.236;2023-04-09T05:32:32;9.20;99.90
56727;DHT22;42609;52.700;6.236;2023-04-09T05:34:57;9.20;99.90
56727;DHT22;42609;52.700;6.236;2023-04-09T05:37:23;9.20;99.90
56727;DHT22;42609;52.700;6.236;2023-04-09T05:39:48;9.20;99.90
56727;DHT22;42609;52.700;6.236;2023-04-09T05:42:14;9.20;99.90
56727;DHT22;42609;52.700;6.236;2023-04-09T05:44:40;9.20;99.90
56727;DHT22;42609;52.700;6.236;2023-04-09T05:47:05;9.30;99.90
56727;DHT22;42609;52.700;6.236;2023-04-09T05:49:31;9.30;99.90
56727;DHT22;42609;52.700;6.236;2023-04-09T05:51:57;9.30;99.90
56727;DHT22;42609;52.700;6.236;2023-04-09T05:54:22;9.30;99.90
56727;DHT22;42609;52.700;6.236;2023-04-09T05:56:48;9.30;99.90
56727;DHT22;42609;52.700;6.236;2023-04-09T05:59:13;9.30;99.90
56727;DHT22;42609;52.700;6.236;2023-04-09T06:01:39;9.30;99.90
56727;DHT22;42609;52.700;6.236;2023-04-09T06:04:05;9.40;99.90
56727;DHT22;42609;52.700;6.236;2023-04-09T06:06:30;9.40;99.90
56727;DHT22;42609;52.700;6.236;2023-04-09T06:08:56;9.40;99.90
56727;DHT22;42609;52.700;6.236;2023-04-09T06:11:21;9.40;99.90
56727;DHT22;42609;52.700;6.236;2023-04-09T06:13:47;9.40;99.90
56727;DHT22;42609;52.700;6.236;2023-04-09T06:16:12;9.40;99.90
56727;DHT22;42609;52.700;6.236;2023-04-09T06:18:38;9.40;99.90
56727;DHT22;42609;52.700;6.236;2023-04-09T06:21:05;9.40;99.90
56727;DHT22;42609;52.700;6.236;2023-04-09T06:23:32;9.50;99.90
56727;DHT22;42609;52.700;6.236;2023-04-09T06:25:58;9.50;99.90
56727;DHT22;42609;52.700;6.236;2023-04-09T06:28:25;9.50;99.90
56727;DHT22;42609;52.700;6.236;2023-04-09T06:30:53;9.60;99.90
56727;DHT22;42609;52.700;6.236;2023-04-09T06:33:20;9.60;99.90
56727;DHT22;42609;52.700;6.236;2023-04-09T06:35:46;9.60;99.90
56727;DHT22;42609;52.700;6.236;2023-04-09T06:38:12;9.70;99.90
56727;DHT22;42609;52.700;6.236;2023-04-09T06:40:37;9.70;99.90
56727;DHT22;42609;52.700;6.236;2023-04-09T06:43:04;9.70;99.90
56727;DHT22;42609;52.700;6.236;2023-04-09T06:45:30;9.80;99.90
56727;DHT22;42609;52.700;6.236;2023-04-09T06:47:56;9.80;99.90
56727;DHT22;42609;52.700;6.236;2023-04-09T06:50:22;9.80;99.90
56727;DHT22;42609;52.700;6.236;2023-04-09T06:52:48;9.90;99.90
56727;DHT22;42609;52.700;6.236;2023-04-09T06:55:13;9.90;99.90
56727;DHT22;42609;52.700;6.236;2023-04-09T06:57:39;9.90;99.90
56727;DHT22;42609;52.700;6.236;2023-04-09T07:00:06;10.00;99.90
56727;DHT22;42609;52.700;6.236;2023-04-09T07:02:32;10.00;99.90
56727;DHT22;42609;52.700;6.236;2023-04-09T07:04:58;10.10;99.90
56727;DHT22;42609;52.700;6.236;2023-04-09T07:07:24;10.00;99.90
56727;DHT22;42609;52.700;6.236;2023-04-09T07:09:51;10.00;99.90
56727;DHT22;42609;52.700;6.236;2023-04-09T07:12:26;10.10;99.90
56727;DHT22;42609;52.700;6.236;2023-04-09T07:14:52;10.10;99.90
56727;DHT22;42609;52.700;6.236;2023-04-09T07:17:18;10.20;99.90
56727;DHT22;42609;52.700;6.236;2023-04-09T07:19:44;10.10;99.90
56727;DHT22;42609;52.700;6.236;2023-04-09T07:22:09;10.20;99.90
56727;DHT22;42609;52.700;6.236;2023-04-09T07:24:35;10.20;99.90
56727;DHT22;42609;52.700;6.236;2023-04-09T07:27:04;10.30;99.90
56727;DHT22;42609;52.700;6.236;2023-04-09T07:29:30;10.40;99.90
56727;DHT22;42609;52.700;6.236;2023-04-09T07:31:55;10.40;99.90
56727;DHT22;42609;52.700;6.236;2023-04-09T07:34:21;10.50;99.90
56727;DHT22;42609;52.700;6.236;2023-04-09T07:36:49;10.50;99.90
56727;DHT22;42609;52.700;6.236;2023-04-09T07:39:15;10.60;99.90
56727;DHT22;42609;52.700;6.236;2023-04-09T07:41:41;10.60;99.90
56727;DHT22;42609;52.700;6.236;2023-04-09T07:44:07;10.60;99.90
56727;DHT22;42609;52.700;6.236;2023-04-09T07:46:33;10.60;99.90
56727;DHT22;42609;52.700;6.236;2023-04-09T07:48:59;10.60;99.90
56727;DHT22;42609;52.700;6.236;2023-04-09T07:51:24;10.70;99.90
56727;DHT22;42609;52.700;6.236;2023-04-09T07:53:50;10.70;99.90
56727;DHT22;42609;52.700;6.236;2023-04-09T07:56:16;10.70;99.90
56727;DHT22;42609;52.700;6.236;2023-04-09T07:58:41;10.80;99.90
56727;DHT22;42609;52.700;6.236;2023-04-09T08:01:07;10.80;99.90
56727;DHT22;42609;52.700;6.236;2023-04-09T08:03:33;10.90;99.90
56727;DHT22;42609;52.700;6.236;2023-04-09T08:06:00;10.90;99.90
56727;DHT22;42609;52.700;6.236;2023-04-09T08:08:26;11.00;99.90
56727;DHT22;42609;52.700;6.236;2023-04-09T08:10:52;11.00;99.90
56727;DHT22;42609;52.700;6.236;2023-04-09T08:13:17;11.10;99.90
56727;DHT22;42609;52.700;6.236;2023-04-09T08:15:43;11.20;99.90
56727;DHT22;42609;52.700;6.236;2023-04-09T08:18:09;11.30;99.90
56727;DHT22;42609;52.700;6.236;2023-04-09T08:20:37;11.30;99.90
56727;DHT22;42609;52.700;6.236;2023-04-09T08:23:09;11.40;99.90
56727;DHT22;42609;52.700;6.236;2023-04-09T08:25:35;11.40;99.90
56727;DHT22;42609;52.700;6.236;2023-04-09T08:28:00;11.50;99.90
56727;DHT22;42609;52.700;6.236;2023-04-09T08:30:26;11.50;99.90
56727;DHT22;42609;52.700;6.236;2023-04-09T08:32:52;11.60;99.90
56727;DHT22;42609;52.700;6.236;2023-04-09T08:35:18;11.70;99.90
56727;DHT22;42609;52.700;6.236;2023-04-09T08:37:44;11.70;99.90
56727;DHT22;42609;52.700;6.236;2023-04-09T08:40:10;11.80;99.90
56727;DHT22;42609;52.700;6.236;2023-04-09T08:42:43;12.00;99.90
56727;DHT22;42609;52.700;6.236;2023-04-09T08:45:11;12.20;99.90
56727;DHT22;42609;52.700;6.236;2023-04-09T08:47:37;12.20;99.90
56727;DHT22;42609;52.700;6.236;2023-04-09T08:50:05;12.30;99.90
56727;DHT22;42609;52.700;6.236;2023-04-09T08:52:31;12.50;99.90
56727;DHT22;42609;52.700;6.236;2023-04-09T08:54:57;12.60;99.90
56727;DHT22;42609;52.700;6.236;2023-04-09T08:57:23;12.50;99.90
56727;DHT22;42609;52.700;6.236;2023-04-09T08:59:49;12.60;99.90
56727;DHT22;42609;52.700;6.236;2023-04-09T09:02:14;12.90;99.90
56727;DHT22;42609;52.700;6.236;2023-04-09T09:04:44;13.00;99.90
56727;DHT22;42609;52.700;6.236;2023-04-09T09:07:11;13.10;99.90
56727;DHT22;42609;52.700;6.236;2023-04-09T09:14:57;13.50;99.90
56727;DHT22;42609;52.700;6.236;2023-04-09T09:17:22;13.50;99.90
56727;DHT22;42609;52.700;6.236;2023-04-09T09:19:48;13.40;99.90
56727;DHT22;42609;52.700;6.236;2023-04-09T09:22:13;13.30;99.90
56727;DHT22;42609;52.700;6.236;2023-04-09T09:27:35;13.50;99.90
56727;DHT22;42609;52.700;6.236;2023-04-09T09:30:05;13.50;99.90
56727;DHT22;42609;52.700;6.236;2023-04-09T09:32:32;13.60;99.90
56727;DHT22;42609;52.700;6.236;2023-04-09T09:35:01;13.50;99.90
56727;DHT22;42609;52.700;6.236;2023-04-09T09:37:28;13.60;99.90
56727;DHT22;42609;52.700;6.236;2023-04-09T09:39:54;13.60;99.90
56727;DHT22;42609;52.700;6.236;2023-04-09T09:42:20;13.60;99.90
56727;DHT22;42609;52.700;6.236;2023-04-09T09:44:46;13.70;99.90
56727;DHT22;42609;52.700;6.236;2023-04-09T09:47:13;13.90;99.90
56727;DHT22;42609;52.700;6.236;2023-04-09T09:49:39;14.10;99.90
56727;DHT22;42609;52.700;6.236;2023-04-09T09:52:09;14.30;99.90
56727;DHT22;42609;52.700;6.236;2023-04-09T09:54:42;14.30;99.90
56727;DHT22;42609;52.700;6.236;2023-04-09T09:57:12;14.30;99.90
56727;DHT22;42609;52.700;6.236;2023-04-09T10:00:02;14.20;99.90
56727;DHT22;42609;52.700;6.236;2023-04-09T10:02:37;14.20;99.90
56727;DHT22;42609;52.700;6.236;2023-04-09T10:05:05;14.20;99.90
56727;DHT22;42609;52.700;6.236;2023-04-09T10:07:33;14.40;99.90
56727;DHT22;42609;52.700;6.236;2023-04-09T10:10:00;14.40;99.90
56727;DHT22;42609;52.700;6.236;2023-04-09T10:12:26;14.50;99.90
56727;DHT22;42609;52.700;6.236;2023-04-09T10:14:54;14.50;99.90
56727;DHT22;42609;52.700;6.236;2023-04-09T10:17:24;14.70;99.90
56727;DHT22;42609;52.700;6.236;2023-04-09T10:20:10;14.80;99.90
56727;DHT22;42609;52.700;6.236;2023-04-09T10:22:37;14.90;99.90
56727;DHT22;42609;52.700;6.236;2023-04-09T10:25:04;14.90;99.90
56727;DHT22;42609;52.700;6.236;2023-04-09T10:27:30;14.90;99.90
56727;DHT22;42609;52.700;6.236;2023-04-09T10:29:56;15.00;99.90
56727;DHT22;42609;52.700;6.236;2023-04-09T10:32:24;15.00;99.90
56727;DHT22;42609;52.700;6.236;2023-04-09T10:34:55;15.10;99.90
56727;DHT22;42609;52.700;6.236;2023-04-09T10:37:26;15.20;99.90
56727;DHT22;42609;52.700;6.236;2023-04-09T10:39:52;15.30;99.90
56727;DHT22;42609;52.700;6.236;2023-04-09T10:42:37;15.30;99.90
56727;DHT22;42609;52.700;6.236;2023-04-09T10:47:34;15.70;99.90
56727;DHT22;42609;52.700;6.236;2023-04-09T10:50:24;15.60;99.90
56727;DHT22;42609;52.700;6.236;2023-04-09T10:52:54;15.60;99.90
56727;DHT22;42609;52.700;6.236;2023-04-09T10:55:41;15.70;99.90
56727;DHT22;42609;52.700;6.236;2023-04-09T10:58:12;15.80;99.90
56727;DHT22;42609;52.700;6.236;2023-04-09T11:00:39;15.90;99.90
56727;DHT22;42609;52.700;6.236;2023-04-09T11:03:18;15.90;99.90
56727;DHT22;42609;52.700;6.236;2023-04-09T11:05:50;16.10;99.90
56727;DHT22;42609;52.700;6.236;2023-04-09T11:08:17;16.10;99.90
56727;DHT22;42609;52.700;6.236;2023-04-09T11:10:44;16.10;99.90
56727;DHT22;42609;52.700;6.236;2023-04-09T11:13:15;16.10;99.90
56727;DHT22;42609;52.700;6.236;2023-04-09T11:15:42;16.20;99.90
56727;DHT22;42609;52.700;6.236;2023-04-09T11:18:08;16.30;99.90
56727;DHT22;42609;52.700;6.236;2023-04-09T11:20:39;16.30;99.90
56727;DHT22;42609;52.700;6.236;2023-04-09T11:23:05;16.20;99.90
56727;DHT22;42609;52.700;6.236;2023-04-09T11:25:32;16.00;99.90
56727;DHT22;42609;52.700;6.236;2023-04-09T11:27:58;15.90;99.90
56727;DHT22;42609;52.700;6.236;2023-04-09T11:30:24;15.80;99.90
56727;DHT22;42609;52.700;6.236;2023-04-09T11:32:50;15.80;99.90
56727;DHT22;42609;52.700;6.236;2023-04-09T11:35:20;15.90;99.90
56727;DHT22;42609;52.700;6.236;2023-04-09T11:37:47;15.90;99.90
56727;DHT22;42609;52.700;6.236;2023-04-09T11:40:15;15.90;99.90
56727;DHT22;42609;52.700;6.236;2023-04-09T11:42:44;15.90;99.90
56727;DHT22;42609;52.700;6.236;2023-04-09T11:45:11;16.00;99.90
56727;DHT22;42609;52.700;6.236;2023-04-09T11:47:38;16.00;99.90
56727;DHT22;42609;52.700;6.236;2023-04-09T11:50:07;16.00;99.90
56727;DHT22;42609;52.700;6.236;2023-04-09T11:52:33;16.00;99.90
56727;DHT22;42609;52.700;6.236;2023-04-09T11:55:03;16.10;99.90
56727;DHT22;42609;52.700;6.236;2023-04-09T11:57:43;16.40;99.90
56727;DHT22;42609;52.700;6.236;2023-04-09T12:00:10;16.50;99.90
56727;DHT22;42609;52.700;6.236;2023-04-09T12:02:38;16.30;99.90
56727;DHT22;42609;52.700;6.236;2023-04-09T12:05:06;16.30;99.90
56727;DHT22;42609;52.700;6.236;2023-04-09T12:07:34;16.40;99.90
56727;DHT22;42609;52.700;6.236;2023-04-09T12:10:04;16.40;99.90
56727;DHT22;42609;52.700;6.236;2023-04-09T12:12:30;16.40;99.90
56727;DHT22;42609;52.700;6.236;2023-04-09T12:15:17;16.40;99.90
56727;DHT22;42609;52.700;6.236;2023-04-09T12:17:53;16.30;99.90
56727;DHT22;42609;52.700;6.236;2023-04-09T12:20:38;16.20;99.90
56727;DHT22;42609;52.700;6.236;2023-04-09T12:23:05;16.20;99.90
56727;DHT22;42609;52.700;6.236;2023-04-09T12:25:33;16.30;99.90
56727;DHT22;42609;52.700;6.236;2023-04-09T12:28:00;16.40;99.90
56727;DHT22;42609;52.700;6.236;2023-04-09T12:30:26;16.40;99.90
56727;DHT22;42609;52.700;6.236;2023-04-09T12:32:52;16.50;99.90
56727;DHT22;42609;52.700;6.236;2023-04-09T12:35:18;16.60;99.90
56727;DHT22;42609;52.700;6.236;2023-04-09T12:37:44;16.70;99.90
56727;DHT22;42609;52.700;6.236;2023-04-09T12:40:10;16.70;99.90
56727;DHT22;42609;52.700;6.236;2023-04-09T12:42:39;16.60;99.90
56727;DHT22;42609;52.700;6.236;2023-04-09T12:45:06;16.50;99.90
56727;DHT22;42609;52.700;6.236;2023-04-09T12:47:31;16.50;99.90
56727;DHT22;42609;52.700;6.236;2023-04-09T12:49:57;16.50;99.90
56727;DHT22;42609;52.700;6.236;2023-04-09T12:52:22;16.40;99.90
56727;DHT22;42609;52.700;6.236;2023-04-09T12:54:50;16.40;99.90
56727;DHT22;42609;52.700;6.236;2023-04-09T12:57:16;16.50;99.90
56727;DHT22;42609;52.700;6.236;2023-04-09T12:59:41;16.60;99.90
56727;DHT22;42609;52.700;6.236;2023-04-09T13:02:07;16.80;99.90
56727;DHT22;42609;52.700;6.236;2023-04-09T13:04:33;17.00;99.90
56727;DHT22;42609;52.700;6.236;2023-04-09T13:06:58;17.10;99.90
56727;DHT22;42609;52.700;6.236;2023-04-09T13:09:25;17.00;99.90
56727;DHT22;42609;52.700;6.236;2023-04-09T13:11:52;17.00;99.60
56727;DHT22;42609;52.700;6.236;2023-04-09T13:14:18;16.90;99.90
56727;DHT22;42609;52.700;6.236;2023-04-09T13:16:43;16.70;99.90
56727;DHT22;42609;52.700;6.236;2023-04-09T13:19:09;16.70;99.90
56727;DHT22;42609;52.700;6.236;2023-04-09T13:21:35;16.80;99.90
56727;DHT22;42609;52.700;6.236;2023-04-09T13:24:02;16.90;99.90
56727;DHT22;42609;52.700;6.236;2023-04-09T13:26:28;16.90;99.60
56727;DHT22;42609;52.700;6.236;2023-04-09T13:28:53;17.00;99.10
56727;DHT22;42609;52.700;6.236;2023-04-09T13:31:19;17.00;97.70
56727;DHT22;42609;52.700;6.236;2023-04-09T13:33:44;17.10;98.20
56727;DHT22;42609;52.700;6.236;2023-04-09T13:36:10;17.10;97.80
56727;DHT22;42609;52.700;6.236;2023-04-09T13:38:36;17.20;98.20
56727;DHT22;42609;52.700;6.236;2023-04-09T13:41:02;17.30;98.30
56727;DHT22;42609;52.700;6.236;2023-04-09T13:43:27;17.40;98.20
56727;DHT22;42609;52.700;6.236;2023-04-09T13:45:54;17.40;97.70
56727;DHT22;42609;52.700;6.236;2023-04-09T13:48:20;17.40;96.80
56727;DHT22;42609;52.700;6.236;2023-04-09T13:50:46;17.40;96.00
56727;DHT22;42609;52.700;6.236;2023-04-09T13:53:12;17.40;95.70
56727;DHT22;42609;52.700;6.236;2023-04-09T13:55:38;17.40;95.60
56727;DHT22;42609;52.700;6.236;2023-04-09T13:58:04;17.40;95.70
56727;DHT22;42609;52.700;6.236;2023-04-09T14:00:30;17.40;95.30
56727;DHT22;42609;52.700;6.236;2023-04-09T14:02:56;17.40;95.60
56727;DHT22;42609;52.700;6.236;2023-04-09T14:05:22;17.40;95.40
56727;DHT22;42609;52.700;6.236;2023-04-09T14:07:48;17.40;95.20
56727;DHT22;42609;52.700;6.236;2023-04-09T14:10:14;17.40;94.40
56727;DHT22;42609;52.700;6.236;2023-04-09T14:12:40;17.30;93.40
56727;DHT22;42609;52.700;6.236;2023-04-09T14:15:06;17.30;93.90
56727;DHT22;42609;52.700;6.236;2023-04-09T14:17:32;17.30;94.00
56727;DHT22;42609;52.700;6.236;2023-04-09T14:19:57;17.40;93.90
56727;DHT22;42609;52.700;6.236;2023-04-09T14:22:25;17.40;93.50
56727;DHT22;42609;52.700;6.236;2023-04-09T14:24:50;17.50;93.20
56727;DHT22;42609;52.700;6.236;2023-04-09T14:27:16;17.50;93.20
56727;DHT22;42609;52.700;6.236;2023-04-09T14:29:42;17.50;93.20
56727;DHT22;42609;52.700;6.236;2023-04-09T14:32:07;17.40;92.90
56727;DHT22;42609;52.700;6.236;2023-04-09T14:34:33;17.20;92.60
56727;DHT22;42609;52.700;6.236;2023-04-09T14:36:59;17.10;92.80
56727;DHT22;42609;52.700;6.236;2023-04-09T14:39:24;16.90;93.10
56727;DHT22;42609;52.700;6.236;2023-04-09T14:41:50;17.00;92.90
56727;DHT22;42609;52.700;6.236;2023-04-09T14:44:16;17.00;92.90
56727;DHT22;42609;52.700;6.236;2023-04-09T14:46:42;17.10;92.70
56727;DHT22;42609;52.700;6.236;2023-04-09T14:49:08;17.10;92.50
56727;DHT22;42609;52.700;6.236;2023-04-09T14:51:33;17.20;92.70
56727;DHT22;42609;52.700;6.236;2023-04-09T14:53:59;17.30;92.40
56727;DHT22;42609;52.700;6.236;2023-04-09T14:56:26;17.30;91.60
56727;DHT22;42609;52.700;6.236;2023-04-09T14:58:52;17.40;92.10
56727;DHT22;42609;52.700;6.236;2023-04-09T15:01:18;17.40;91.70
56727;DHT22;42609;52.700;6.236;2023-04-09T15:03:43;17.40;91.40
56727;DHT22;42609;52.700;6.236;2023-04-09T15:06:10;17.40;91.20
56727;DHT22;42609;52.700;6.236;2023-04-09T15:08:36;17.40;90.60
56727;DHT22;42609;52.700;6.236;2023-04-09T15:11:02;17.50;90.60
56727;DHT22;42609;52.700;6.236;2023-04-09T15:13:28;17.60;91.20
56727;DHT22;42609;52.700;6.236;2023-04-09T15:15:54;17.50;90.20
56727;DHT22;42609;52.700;6.236;2023-04-09T15:18:20;17.60;90.70
56727;DHT22;42609;52.700;6.236;2023-04-09T15:20:45;17.60;91.10
56727;DHT22;42609;52.700;6.236;2023-04-09T15:23:11;17.70;91.50
56727;DHT22;42609;52.700;6.236;2023-04-09T15:25:37;17.70;91.30
56727;DHT22;42609;52.700;6.236;2023-04-09T15:28:03;17.70;90.70
56727;DHT22;42609;52.700;6.236;2023-04-09T15:30:30;17.60;90.50
56727;DHT22;42609;52.700;6.236;2023-04-09T15:32:55;17.50;90.60
56727;DHT22;42609;52.700;6.236;2023-04-09T15:35:21;17.40;90.50
56727;DHT22;42609;52.700;6.236;2023-04-09T15:37:54;17.40;90.20
56727;DHT22;42609;52.700;6.236;2023-04-09T15:40:19;17.40;90.40
56727;DHT22;42609;52.700;6.236;2023-04-09T15:42:45;17.40;90.60
56727;DHT22;42609;52.700;6.236;2023-04-09T15:45:13;17.40;90.70
56727;DHT22;42609;52.700;6.236;2023-04-09T15:47:39;17.30;90.90
56727;DHT22;42609;52.700;6.236;2023-04-09T15:50:05;17.20;90.90
56727;DHT22;42609;52.700;6.236;2023-04-09T15:52:31;17.20;90.60
56727;DHT22;42609;52.700;6.236;2023-04-09T15:54:56;17.10;90.70
56727;DHT22;42609;52.700;6.236;2023-04-09T15:57:22;17.00;90.50